Terminal Aerodrome Forecast
Issued by NWS

Home | Current Version | Previous Version | Text Only | Print | Product List | Glossary On
Versions: 1 2 3 4 5 6 7 8 9 10 11 12 13 14 15
296
FTUS44 KEPZ 272340
TAFTCS
TAF
KTCS 272340Z 2800/2824 20007KT P6SM SCT060 BKN250
     FM280400 30010KT P6SM SCT060 BKN100 BKN250
      TEMPO 2805/2809 VRB25G40KT 4SM TSRA BKN040CB
     FM281000 35006KT P6SM FEW100 BKN250
     FM281600 12008KT P6SM VCTS SCT050CB BKN250=

USA.gov is the U.S. government's official web portal to all federal, state and local government web resources and services.